NORTHEAST SUFFOLK  -  Freeze Watch Freeze Watch        NORTHWEST SUFFOLK  -  Freeze Watch Freeze Watch        SOUTHEAST SUFFOLK  -  Freeze Watch Freeze Watch        SOUTHWEST SUFFOLK  -  Freeze Watch Freeze Watch      

Active alerts

Northwest Suffolk
  Details for Northwest Suffolk Freeze Watch
Southwest Suffolk
  Details for Southwest Suffolk Freeze Watch
Northeast Suffolk
  Details for Northeast Suffolk Freeze Watch
Southeast Suffolk
  Details for Southeast Suffolk Freeze Watch


WXM80 ListenWXM80 Stop

You find our weather info also at:

UK Metoffice

WeatherCloud

Weather Underground

Northeastern Weather Network

AWEKAS

Citizen Weather Observer Program (CWOP)

HAMweather, WeatherForYou, PWS Weather


Weather Underground History page Text

Daily Summary for May 2, 2016 Units:  English    Metric   Both
« Previous Day
Next Day »
Daily Weekly Monthly Yearly Custom
  High: Low: Average:
Temperature: 56.9 °F 45.4 °F 50.4 °F
Dew Point: 53.4 °F 44.6 °F 48.6 °F
Humidity: 98 % 85 % 94 %
Wind Speed: 7.4 mph 0.0 mph 1.7 mph
Wind Gust: 11.5 mph - -
Wind:- - SSE
Pressure: 30.07 in 29.86 in -
Precipitation: 0.00 in    
Historical Graphs
 
 
Tabular Data for May 2, 2016
Time Temperature Dew Point Pressure Wind Wind Speed Wind Gust Humidity Rainfall Rate (Hourly)
00:02 45.9 °F 45.1 °F 30.06 in ENE 4.3 mph 10.4 mph 97 % 0.00 in
00:07 45.9 °F 45.1 °F 30.06 in ENE 5.5 mph 11.5 mph 97 % 0.00 in
00:12 45.8 °F 45.0 °F 30.06 in NE 4.2 mph 8.1 mph 97 % 0.00 in
00:17 45.8 °F 45.0 °F 30.07 in ENE 3.1 mph 5.8 mph 97 % 0.00 in
00:22 45.7 °F 44.9 °F 30.06 in ENE 5.9 mph 8.1 mph 97 % 0.00 in
00:27 45.6 °F 44.8 °F 30.06 in NE 5.1 mph 8.1 mph 97 % 0.00 in
00:32 45.5 °F 44.7 °F 30.06 in East 5.7 mph 9.2 mph 97 % 0.00 in
00:37 45.5 °F 44.7 °F 30.06 in East 4.8 mph 9.2 mph 97 % 0.00 in
00:42 45.4 °F 44.6 °F 30.06 in ENE 4.8 mph 8.0 mph 97 % 0.00 in
00:48 45.4 °F 44.6 °F 30.05 in ENE 4.1 mph 8.0 mph 97 % 0.00 in
00:53 45.4 °F 44.6 °F 30.05 in ENE 7.4 mph 10.4 mph 97 % 0.00 in
00:58 45.4 °F 44.6 °F 30.05 in ENE 4.5 mph 6.9 mph 97 % 0.00 in
01:03 45.4 °F 44.6 °F 30.05 in ENE 3.7 mph 6.9 mph 97 % 0.00 in
01:08 45.4 °F 44.6 °F 30.05 in ENE 4.6 mph 6.9 mph 97 % 0.00 in
01:13 45.4 °F 44.6 °F 30.05 in NE 4.9 mph 7.0 mph 97 % 0.00 in
01:18 45.4 °F 44.6 °F 30.04 in ENE 4.9 mph 8.1 mph 97 % 0.00 in
01:23 45.4 °F 44.6 °F 30.04 in ENE 3.6 mph 6.0 mph 97 % 0.00 in
01:28 45.4 °F 44.6 °F 30.04 in ENE 3.1 mph 5.8 mph 97 % 0.00 in
01:33 45.4 °F 44.6 °F 30.03 in ENE 5.3 mph 9.2 mph 97 % 0.00 in
01:39 45.4 °F 44.6 °F 30.03 in ENE 4.4 mph 8.1 mph 97 % 0.00 in
01:44 45.5 °F 44.7 °F 30.02 in ENE 5.3 mph 9.2 mph 97 % 0.00 in
01:49 45.5 °F 44.7 °F 30.02 in ENE 4.6 mph 7.0 mph 97 % 0.00 in
01:54 45.5 °F 44.7 °F 30.02 in NE 4.7 mph 8.1 mph 97 % 0.00 in
01:59 45.5 °F 44.7 °F 30.02 in ENE 5.3 mph 8.1 mph 97 % 0.00 in
02:04 45.5 °F 44.7 °F 30.01 in ENE 5.7 mph 8.1 mph 97 % 0.00 in
02:09 45.4 °F 44.6 °F 30.01 in ENE 5.7 mph 8.1 mph 97 % 0.00 in
02:14 45.4 °F 44.6 °F 30.01 in NE 3.6 mph 5.0 mph 97 % 0.00 in
02:19 45.5 °F 44.7 °F 30.01 in NE 2.9 mph 4.0 mph 97 % 0.00 in
02:24 45.5 °F 44.7 °F 30.01 in East 4.8 mph 9.2 mph 97 % 0.00 in
02:30 45.5 °F 44.7 °F 30.01 in ENE 3.2 mph 4.6 mph 97 % 0.00 in
02:35 45.5 °F 44.7 °F 30.01 in ENE 3.5 mph 8.1 mph 97 % 0.00 in
02:40 45.6 °F 44.8 °F 30.01 in ENE 4.0 mph 6.9 mph 97 % 0.00 in
02:45 45.6 °F 44.8 °F 30.01 in NE 4.5 mph 8.1 mph 97 % 0.00 in
02:50 45.6 °F 44.8 °F 30.00 in ENE 3.8 mph 8.1 mph 97 % 0.00 in
02:55 45.6 °F 44.8 °F 30.00 in ENE 3.9 mph 6.9 mph 97 % 0.00 in
03:00 45.6 °F 44.8 °F 30.01 in NE 1.0 mph 3.5 mph 97 % 0.00 in
03:05 45.7 °F 44.9 °F 30.01 in ENE 1.6 mph 3.5 mph 97 % 0.00 in
03:10 45.7 °F 44.9 °F 30.01 in ENE 2.0 mph 3.5 mph 97 % 0.00 in
03:16 45.7 °F 44.9 °F 30.01 in ENE 2.8 mph 4.6 mph 97 % 0.00 in
03:21 45.7 °F 44.9 °F 30.02 in North 2.1 mph 3.5 mph 97 % 0.00 in
03:26 45.7 °F 44.9 °F 30.02 in NNE 1.4 mph 3.5 mph 97 % 0.00 in
03:31 45.8 °F 45.0 °F 30.01 in NE 3.0 mph 4.0 mph 97 % 0.00 in
03:36 45.8 °F 45.0 °F 30.01 in ENE 0.8 mph 3.0 mph 97 % 0.00 in
03:41 45.8 °F 45.0 °F 30.02 in Calm   1.2 mph 97 % 0.00 in
03:46 45.8 °F 45.0 °F 30.02 in ENE 0.5 mph 2.3 mph 97 % 0.00 in
03:51 45.8 °F 45.0 °F 30.01 in NNE 0.3 mph 1.2 mph 97 % 0.00 in
03:56 45.9 °F 45.1 °F 30.01 in NNE 1.5 mph 2.3 mph 97 % 0.00 in
04:01 45.9 °F 45.1 °F 30.01 in NNE 3.5 mph 5.0 mph 97 % 0.00 in
04:07 45.8 °F 45.0 °F 30.01 in NNE 3.5 mph 6.9 mph 97 % 0.00 in
04:12 45.8 °F 45.0 °F 30.01 in North 2.9 mph 4.6 mph 97 % 0.00 in
04:17 45.8 °F 45.0 °F 30.01 in NNE 2.0 mph 3.5 mph 97 % 0.00 in
04:22 45.8 °F 45.0 °F 30.00 in NNE 0.8 mph 2.3 mph 97 % 0.00 in
04:27 45.8 °F 45.0 °F 30.00 in ENE 1.2 mph 2.3 mph 97 % 0.00 in
04:32 45.8 °F 45.0 °F 29.99 in ENE 1.8 mph 4.0 mph 97 % 0.00 in
04:37 45.8 °F 45.0 °F 29.99 in ENE 1.7 mph 3.5 mph 97 % 0.00 in
04:42 45.7 °F 44.9 °F 30.00 in ENE 1.7 mph 6.9 mph 97 % 0.00 in
04:47 45.7 °F 44.9 °F 29.98 in ENE 3.2 mph 4.6 mph 97 % 0.00 in
04:52 45.7 °F 44.9 °F 29.98 in ENE 4.2 mph 5.8 mph 97 % 0.00 in
04:58 45.6 °F 44.8 °F 29.99 in ENE 3.2 mph 3.5 mph 97 % 0.00 in
05:03 45.6 °F 44.8 °F 29.99 in ENE 2.0 mph 3.5 mph 97 % 0.00 in
05:08 45.6 °F 44.8 °F 30.00 in ENE 1.9 mph 3.5 mph 97 % 0.00 in
05:18 45.6 °F 44.8 °F 29.98 in ENE 3.4 mph 4.6 mph 97 % 0.00 in
05:23 45.6 °F 44.8 °F 29.99 in ENE 2.0 mph 2.3 mph 97 % 0.00 in
05:28 45.6 °F 44.8 °F 29.99 in ENE 4.7 mph 8.0 mph 97 % 0.00 in
05:33 45.6 °F 44.8 °F 29.98 in ENE 3.3 mph 5.0 mph 97 % 0.00 in
05:38 45.7 °F 44.9 °F 29.98 in East 4.0 mph 8.1 mph 97 % 0.00 in
05:43 45.7 °F 44.9 °F 29.98 in ENE 4.4 mph 8.1 mph 97 % 0.00 in
05:49 45.7 °F 44.9 °F 29.98 in ENE 0.9 mph 3.5 mph 97 % 0.00 in
05:54 45.8 °F 45.0 °F 29.99 in ENE 1.7 mph 2.3 mph 97 % 0.00 in
05:59 45.8 °F 45.0 °F 29.99 in ENE 2.4 mph 4.6 mph 97 % 0.00 in
06:04 45.9 °F 45.1 °F 29.99 in ENE 3.4 mph 8.1 mph 97 % 0.00 in
06:09 45.9 °F 45.1 °F 29.99 in NE 3.7 mph 5.8 mph 97 % 0.00 in
06:14 45.9 °F 45.1 °F 29.99 in ENE 3.5 mph 5.0 mph 97 % 0.00 in
06:19 46.0 °F 45.2 °F 29.99 in ENE 2.2 mph 3.5 mph 97 % 0.00 in
06:24 46.0 °F 45.2 °F 29.99 in ENE 2.4 mph 4.0 mph 97 % 0.00 in
06:29 46.0 °F 45.2 °F 29.99 in ENE 4.3 mph 6.9 mph 97 % 0.00 in
06:34 46.0 °F 45.2 °F 30.00 in NE 1.8 mph 3.5 mph 97 % 0.00 in
06:40 46.1 °F 45.3 °F 30.00 in ENE 1.8 mph 3.5 mph 97 % 0.00 in
06:45 46.1 °F 45.3 °F 30.00 in ENE 2.2 mph 3.5 mph 97 % 0.00 in
06:50 46.1 °F 45.3 °F 29.99 in East 2.5 mph 3.5 mph 97 % 0.00 in
06:55 46.2 °F 45.4 °F 29.99 in East 1.8 mph 3.5 mph 97 % 0.00 in
07:00 46.3 °F 45.5 °F 29.99 in East 2.9 mph 4.6 mph 97 % 0.00 in
07:05 46.3 °F 45.5 °F 29.99 in ENE 2.4 mph 3.5 mph 97 % 0.00 in
07:10 46.4 °F 45.6 °F 29.99 in ENE 3.5 mph 6.9 mph 97 % 0.00 in
07:15 46.4 °F 45.6 °F 30.00 in ENE 1.2 mph 3.0 mph 97 % 0.00 in
07:20 46.5 °F 45.7 °F 30.00 in ENE 1.9 mph 3.5 mph 97 % 0.00 in
07:25 46.6 °F 45.8 °F 30.00 in ENE 2.0 mph 2.3 mph 97 % 0.00 in
07:31 46.7 °F 46.2 °F 29.99 in ENE 1.5 mph 3.0 mph 98 % 0.00 in
07:36 46.8 °F 46.3 °F 29.99 in East 3.5 mph 4.6 mph 98 % 0.00 in
07:41 46.9 °F 46.4 °F 29.98 in East 3.1 mph 5.0 mph 98 % 0.00 in
07:46 47.0 °F 46.5 °F 29.98 in East 2.3 mph 3.5 mph 98 % 0.00 in
07:51 47.1 °F 46.6 °F 29.98 in ENE 1.3 mph 3.5 mph 98 % 0.00 in
07:56 47.1 °F 46.3 °F 29.99 in NE 2.3 mph 3.5 mph 97 % 0.00 in
08:01 47.2 °F 46.4 °F 29.99 in NE 1.8 mph 3.5 mph 97 % 0.00 in
08:06 47.1 °F 46.3 °F 29.99 in ENE 1.9 mph 4.6 mph 97 % 0.00 in
08:11 47.1 °F 46.3 °F 29.99 in East 2.4 mph 3.5 mph 97 % 0.00 in
08:16 47.1 °F 46.3 °F 29.99 in East 2.0 mph 2.3 mph 97 % 0.00 in
08:22 47.2 °F 46.4 °F 29.98 in East 1.6 mph 4.6 mph 97 % 0.00 in
08:27 47.3 °F 46.5 °F 29.98 in ENE 1.6 mph 3.5 mph 97 % 0.00 in
08:32 47.3 °F 46.5 °F 29.98 in East 2.0 mph 3.5 mph 97 % 0.00 in
08:42 47.2 °F 46.4 °F 29.98 in ENE 2.8 mph 5.0 mph 97 % 0.00 in
08:47 47.2 °F 46.4 °F 29.98 in ENE 2.3 mph 3.5 mph 97 % 0.00 in
08:52 47.2 °F 46.4 °F 29.97 in ENE 2.8 mph 4.0 mph 97 % 0.00 in
08:57 47.3 °F 46.8 °F 29.96 in ENE 3.6 mph 8.1 mph 98 % 0.00 in
09:02 47.4 °F 46.9 °F 29.97 in East 3.2 mph 4.6 mph 98 % 0.00 in
09:07 47.5 °F 47.0 °F 29.96 in ENE 4.2 mph 4.2 mph 98 % 0.00 in
09:18 47.8 °F 47.0 °F 29.97 in East 2.8 mph 5.0 mph 97 % 0.00 in
09:23 48.1 °F 47.6 °F 29.97 in East 2.5 mph 4.6 mph 98 % 0.00 in
09:28 48.2 °F 47.7 °F 29.98 in East 2.9 mph 5.8 mph 98 % 0.00 in
09:33 48.2 °F 47.7 °F 29.97 in ENE 1.7 mph 3.5 mph 98 % 0.00 in
09:38 48.1 °F 47.3 °F 29.98 in ESE 0.5 mph 2.0 mph 97 % 0.00 in
09:43 48.2 °F 47.4 °F 29.98 in ESE 0.5 mph 1.2 mph 97 % 0.00 in
09:53 48.6 °F 47.8 °F 29.98 in Calm     97 % 0.00 in
09:58 48.8 °F 48.0 °F 29.98 in Calm     97 % 0.00 in
10:04 49.0 °F 48.2 °F 29.98 in Calm   1.2 mph 97 % 0.00 in
10:09 49.3 °F 48.8 °F 29.97 in ESE 0.4 mph 1.2 mph 98 % 0.00 in
10:14 49.5 °F 48.7 °F 29.98 in SSW 1.4 mph 4.0 mph 97 % 0.00 in
10:19 49.7 °F 49.2 °F 29.97 in SW 0.3 mph 3.5 mph 98 % 0.00 in
10:24 49.9 °F 49.1 °F 29.97 in WSW 2.4 mph 5.8 mph 97 % 0.00 in
10:34 50.1 °F 49.3 °F 29.97 in WNW 0.2 mph 3.5 mph 97 % 0.00 in
10:39 50.1 °F 49.3 °F 29.97 in WSW 4.3 mph 5.8 mph 97 % 0.00 in
10:44 50.2 °F 49.4 °F 29.97 in Calm   1.2 mph 97 % 0.00 in
10:49 50.4 °F 49.6 °F 29.96 in Calm   1.2 mph 97 % 0.00 in
10:55 50.7 °F 49.9 °F 29.96 in Calm     97 % 0.00 in
11:00 50.9 °F 50.1 °F 29.96 in Calm   1.2 mph 97 % 0.00 in
11:05 51.0 °F 50.2 °F 29.95 in NNE 0.1 mph 2.3 mph 97 % 0.00 in
11:10 51.1 °F 50.3 °F 29.95 in NNE 1.1 mph 3.5 mph 97 % 0.00 in
11:15 51.3 °F 50.5 °F 29.94 in NNE 3.5 mph 5.0 mph 97 % 0.00 in
11:20 51.3 °F 50.2 °F 29.93 in NNE 1.7 mph 3.5 mph 96 % 0.00 in
11:25 51.3 °F 50.2 °F 29.92 in ENE 3.2 mph 5.0 mph 96 % 0.00 in
11:30 51.0 °F 49.6 °F 29.90 in ENE 2.3 mph 4.6 mph 95 % 0.00 in
11:35 51.0 °F 49.6 °F 29.91 in ENE 2.2 mph 4.6 mph 95 % 0.00 in
11:40 51.0 °F 49.6 °F 29.95 in WNW 1.8 mph 4.0 mph 95 % 0.00 in
11:46 50.9 °F 49.2 °F 29.95 in North 3.7 mph 4.6 mph 94 % 0.00 in
11:51 50.8 °F 49.1 °F 29.94 in North 0.7 mph 3.5 mph 94 % 0.00 in
11:56 50.6 °F 48.9 °F 29.92 in North 1.1 mph 2.3 mph 94 % 0.00 in
12:01 50.6 °F 48.9 °F 29.93 in North 1.1 mph 2.3 mph 94 % 0.00 in
12:06 50.5 °F 48.8 °F 29.93 in North 0.6 mph 3.0 mph 94 % 0.00 in
12:11 50.5 °F 48.8 °F 29.93 in Calm     94 % 0.00 in
12:16 50.6 °F 48.9 °F 29.93 in Calm   1.2 mph 94 % 0.00 in
12:21 50.6 °F 48.9 °F 29.93 in North 1.7 mph 4.0 mph 94 % 0.00 in
12:26 50.6 °F 48.9 °F 29.93 in North 0.6 mph 3.5 mph 94 % 0.00 in
12:31 50.6 °F 48.9 °F 29.93 in North 0.3 mph 1.2 mph 94 % 0.00 in
12:37 50.6 °F 48.9 °F 29.93 in North 0.2 mph 2.3 mph 94 % 0.00 in
12:42 50.7 °F 49.0 °F 29.92 in Calm   1.2 mph 94 % 0.00 in
12:47 50.7 °F 49.0 °F 29.92 in North 0.8 mph 2.3 mph 94 % 0.00 in
12:52 50.6 °F 48.9 °F 29.92 in North 0.3 mph 2.3 mph 94 % 0.00 in
12:57 50.8 °F 49.1 °F 29.91 in North 0.1 mph 1.2 mph 94 % 0.00 in
13:02 50.9 °F 49.2 °F 29.92 in North 1.3 mph 3.5 mph 94 % 0.00 in
13:07 51.0 °F 49.3 °F 29.92 in North 1.7 mph 2.3 mph 94 % 0.00 in
13:12 51.1 °F 49.4 °F 29.92 in North 0.9 mph 2.3 mph 94 % 0.00 in
13:17 51.2 °F 49.5 °F 29.92 in North 1.0 mph 2.3 mph 94 % 0.00 in
13:22 51.3 °F 49.6 °F 29.92 in North 2.7 mph 4.6 mph 94 % 0.00 in
13:28 51.3 °F 49.6 °F 29.92 in North 0.5 mph 2.3 mph 94 % 0.00 in
13:33 51.3 °F 49.6 °F 29.92 in Calm   2.3 mph 94 % 0.00 in
13:43 51.3 °F 49.3 °F 29.92 in NNW 1.4 mph 3.5 mph 93 % 0.00 in
13:48 51.3 °F 49.3 °F 29.92 in NNW 0.2 mph 2.0 mph 93 % 0.00 in
13:53 51.3 °F 49.3 °F 29.92 in NNW 1.9 mph 3.5 mph 93 % 0.00 in
13:58 51.4 °F 49.4 °F 29.92 in NNW 0.6 mph 2.0 mph 93 % 0.00 in
14:03 51.3 °F 49.3 °F 29.92 in NNW 2.0 mph 3.5 mph 93 % 0.00 in
14:08 51.4 °F 49.4 °F 29.92 in NNW 0.8 mph 3.5 mph 93 % 0.00 in
14:13 51.4 °F 49.4 °F 29.91 in NNW 1.4 mph 2.3 mph 93 % 0.00 in
14:19 51.5 °F 49.5 °F 29.91 in NNW 0.5 mph 2.3 mph 93 % 0.00 in
14:24 51.8 °F 50.1 °F 29.91 in NNW 1.0 mph 3.5 mph 94 % 0.00 in
14:29 51.9 °F 49.9 °F 29.91 in NNW 0.1 mph 2.3 mph 93 % 0.00 in
14:34 52.1 °F 50.1 °F 29.91 in NNW 0.4 mph 2.0 mph 93 % 0.00 in
14:44 52.4 °F 50.4 °F 29.90 in NNW 1.3 mph 2.3 mph 93 % 0.00 in
14:49 52.6 °F 50.3 °F 29.89 in Calm   1.2 mph 92 % 0.00 in
14:54 53.2 °F 51.2 °F 29.89 in NNW 1.4 mph 2.3 mph 93 % 0.00 in
14:59 53.8 °F 51.8 °F 29.88 in NNW 0.2 mph 2.3 mph 93 % 0.00 in
15:04 54.5 °F 52.2 °F 29.88 in NNW 0.1 mph 3.5 mph 92 % 0.00 in
15:10 54.9 °F 52.3 °F 29.88 in NNW 0.6 mph 2.3 mph 91 % 0.00 in
15:15 55.2 °F 52.0 °F 29.88 in NNW 1.1 mph 3.0 mph 89 % 0.00 in
15:20 55.3 °F 51.8 °F 29.89 in NNE 4.9 mph 8.1 mph 88 % 0.00 in
15:25 55.1 °F 51.3 °F 29.89 in NNE 3.2 mph 4.6 mph 87 % 0.00 in
15:30 55.0 °F 51.5 °F 29.89 in NE 1.2 mph 3.5 mph 88 % 0.00 in
15:35 55.0 °F 51.5 °F 29.88 in NNE 0.5 mph 5.0 mph 88 % 0.00 in
15:40 54.8 °F 51.0 °F 29.88 in NE 1.5 mph 3.5 mph 87 % 0.00 in
15:45 54.7 °F 51.2 °F 29.88 in NE 0.6 mph 2.3 mph 88 % 0.00 in
15:50 54.8 °F 51.6 °F 29.87 in NE 0.7 mph 2.3 mph 89 % 0.00 in
15:55 55.0 °F 51.8 °F 29.87 in NE 1.0 mph 2.0 mph 89 % 0.00 in
16:01 55.3 °F 52.1 °F 29.87 in NE 1.8 mph 3.5 mph 89 % 0.00 in
16:06 55.6 °F 52.4 °F 29.87 in NE 0.8 mph 2.3 mph 89 % 0.00 in
16:11 56.0 °F 52.8 °F 29.87 in NE 1.9 mph 3.5 mph 89 % 0.00 in
16:16 56.0 °F 51.9 °F 29.86 in NE 1.9 mph 3.5 mph 86 % 0.00 in
16:21 56.1 °F 52.3 °F 29.86 in NNE 3.6 mph 4.6 mph 87 % 0.00 in
16:26 56.3 °F 52.5 °F 29.87 in NNW 4.8 mph 6.9 mph 87 % 0.00 in
16:31 56.4 °F 52.3 °F 29.87 in North 3.8 mph 4.6 mph 86 % 0.00 in
16:36 56.3 °F 51.8 °F 29.88 in North 3.5 mph 4.6 mph 85 % 0.00 in
16:41 56.2 °F 51.7 °F 29.88 in North 0.9 mph 3.5 mph 85 % 0.00 in
16:47 56.2 °F 52.1 °F 29.88 in WNW 0.5 mph 2.3 mph 86 % 0.00 in
16:52 56.2 °F 52.1 °F 29.88 in WNW 3.5 mph 5.8 mph 86 % 0.00 in
16:57 56.1 °F 52.0 °F 29.87 in NNW 1.4 mph 3.5 mph 86 % 0.00 in
17:02 56.0 °F 51.9 °F 29.87 in NNW 0.6 mph 2.3 mph 86 % 0.00 in
17:07 56.1 °F 52.0 °F 29.87 in North 0.8 mph 3.0 mph 86 % 0.00 in
17:12 56.0 °F 52.2 °F 29.87 in North 1.2 mph 3.0 mph 87 % 0.00 in
17:17 56.0 °F 51.9 °F 29.87 in North 0.1 mph   86 % 0.00 in
17:22 55.9 °F 52.1 °F 29.88 in North 0.2 mph 1.2 mph 87 % 0.00 in
17:27 55.9 °F 52.1 °F 29.88 in Calm   1.2 mph 87 % 0.00 in
17:32 56.1 °F 52.6 °F 29.88 in Calm     88 % 0.00 in
17:38 56.1 °F 52.3 °F 29.89 in Calm     87 % 0.00 in
17:43 56.1 °F 52.3 °F 29.89 in Calm     87 % 0.00 in
17:48 56.2 °F 52.4 °F 29.89 in Calm     87 % 0.00 in
17:53 56.2 °F 52.7 °F 29.89 in Calm     88 % 0.00 in
17:58 56.3 °F 52.8 °F 29.89 in Calm     88 % 0.00 in
18:03 56.4 °F 52.6 °F 29.89 in North 1.2 mph 2.3 mph 87 % 0.00 in
18:08 56.5 °F 53.0 °F 29.89 in Calm     88 % 0.00 in
18:13 56.6 °F 53.1 °F 29.89 in Calm     88 % 0.00 in
18:23 56.8 °F 53.3 °F 29.88 in North 0.3 mph 2.0 mph 88 % 0.00 in
18:29 56.9 °F 53.1 °F 29.88 in North 0.8 mph 2.0 mph 87 % 0.00 in
18:34 56.9 °F 53.1 °F 29.87 in North 0.1 mph 1.2 mph 87 % 0.00 in
18:39 56.8 °F 52.7 °F 29.88 in Calm   1.2 mph 86 % 0.00 in
18:44 56.8 °F 52.7 °F 29.87 in Calm     86 % 0.00 in
18:49 56.7 °F 52.6 °F 29.88 in Calm     86 % 0.00 in
18:54 56.7 °F 52.9 °F 29.88 in Calm     87 % 0.00 in
18:59 56.7 °F 52.9 °F 29.89 in Calm     87 % 0.00 in
19:04 56.7 °F 52.9 °F 29.89 in Calm     87 % 0.00 in
19:09 56.7 °F 52.9 °F 29.88 in Calm     87 % 0.00 in
19:14 56.6 °F 53.1 °F 29.89 in Calm     88 % 0.00 in
19:20 56.6 °F 53.1 °F 29.89 in Calm     88 % 0.00 in
19:25 56.6 °F 53.1 °F 29.89 in North 0.2 mph 1.2 mph 88 % 0.00 in
19:30 56.6 °F 53.4 °F 29.89 in Calm     89 % 0.00 in
19:35 56.5 °F 53.0 °F 29.90 in Calm     88 % 0.00 in
19:40 56.4 °F 52.9 °F 29.90 in Calm     88 % 0.00 in
19:45 56.4 °F 52.9 °F 29.90 in North 0.2 mph 1.2 mph 88 % 0.00 in
19:50 56.3 °F 53.1 °F 29.90 in North 0.4 mph 1.2 mph 89 % 0.00 in
19:55 56.2 °F 53.0 °F 29.91 in North 0.6 mph 1.2 mph 89 % 0.00 in
20:00 56.0 °F 52.8 °F 29.91 in North 1.0 mph 1.2 mph 89 % 0.00 in
20:05 55.9 °F 52.7 °F 29.91 in North 1.2 mph 2.3 mph 89 % 0.00 in
20:11 55.8 °F 52.6 °F 29.91 in North 0.1 mph 1.2 mph 89 % 0.00 in
20:16 55.6 °F 52.4 °F 29.91 in North 1.1 mph 2.3 mph 89 % 0.00 in
20:21 55.4 °F 52.2 °F 29.91 in North 1.0 mph 2.3 mph 89 % 0.00 in
20:26 55.3 °F 52.1 °F 29.91 in North 0.8 mph 2.0 mph 89 % 0.00 in
20:31 55.1 °F 52.2 °F 29.91 in NNW 1.7 mph 3.5 mph 90 % 0.00 in
20:36 55.0 °F 52.1 °F 29.92 in NNW 0.3 mph 1.2 mph 90 % 0.00 in
20:41 54.8 °F 51.9 °F 29.91 in Calm     90 % 0.00 in
20:46 54.7 °F 51.8 °F 29.91 in Calm     90 % 0.00 in
20:51 54.5 °F 51.6 °F 29.91 in Calm     90 % 0.00 in
20:56 54.4 °F 51.5 °F 29.90 in Calm     90 % 0.00 in
21:02 54.2 °F 51.3 °F 29.90 in Calm     90 % 0.00 in
21:07 54.1 °F 51.2 °F 29.90 in Calm     90 % 0.00 in
21:12 54.0 °F 51.4 °F 29.90 in Calm     91 % 0.00 in
21:17 53.8 °F 51.2 °F 29.90 in Calm     91 % 0.00 in
21:22 53.6 °F 51.0 °F 29.90 in NNW 1.3 mph 2.3 mph 91 % 0.00 in
21:27 53.5 °F 50.9 °F 29.90 in NNW 0.2 mph 1.2 mph 91 % 0.00 in
21:32 53.3 °F 50.7 °F 29.90 in NNW 0.4 mph 1.2 mph 91 % 0.00 in
21:37 53.2 °F 50.6 °F 29.90 in NNW 0.5 mph 2.3 mph 91 % 0.00 in
21:42 53.1 °F 50.5 °F 29.91 in NNW 0.6 mph 1.2 mph 91 % 0.00 in
21:53 53.0 °F 51.0 °F 29.91 in NNW 0.4 mph 1.2 mph 93 % 0.00 in
21:58 52.9 °F 50.9 °F 29.91 in Calm     93 % 0.00 in
22:03 52.8 °F 50.8 °F 29.91 in Calm     93 % 0.00 in
22:08 52.8 °F 50.8 °F 29.91 in Calm     93 % 0.00 in
22:13 52.6 °F 50.6 °F 29.91 in NNW 0.6 mph 2.0 mph 93 % 0.00 in
22:18 52.4 °F 50.4 °F 29.91 in Calm     93 % 0.00 in
22:23 52.3 °F 50.3 °F 29.91 in Calm     93 % 0.00 in
22:28 52.2 °F 49.9 °F 29.91 in Calm     92 % 0.00 in
22:33 52.1 °F 49.8 °F 29.92 in NNW 0.4 mph 1.2 mph 92 % 0.00 in
22:38 52.0 °F 50.0 °F 29.92 in Calm   1.2 mph 93 % 0.00 in
22:49 51.8 °F 49.8 °F 29.92 in Calm   1.2 mph 93 % 0.00 in
22:54 51.8 °F 50.1 °F 29.93 in NNW 0.5 mph 2.3 mph 94 % 0.00 in
22:59 51.7 °F 50.0 °F 29.93 in NNW 0.3 mph 1.2 mph 94 % 0.00 in
23:04 51.7 °F 50.0 °F 29.93 in Calm     94 % 0.00 in
23:09 51.7 °F 50.0 °F 29.93 in Calm     94 % 0.00 in
23:14 51.6 °F 49.9 °F 29.93 in NNW 0.1 mph 1.0 mph 94 % 0.00 in
23:19 51.6 °F 49.9 °F 29.92 in Calm     94 % 0.00 in
23:24 51.5 °F 49.8 °F 29.92 in Calm     94 % 0.00 in
23:29 51.5 °F 49.8 °F 29.92 in Calm     94 % 0.00 in
23:35 51.5 °F 49.8 °F 29.92 in Calm     94 % 0.00 in
23:40 51.4 °F 49.7 °F 29.92 in Calm     94 % 0.00 in
23:45 51.4 °F 49.7 °F 29.91 in Calm     94 % 0.00 in
23:55 51.4 °F 49.7 °F 29.91 in Calm     94 % 0.00 in
Crab Meadow Weather
Compliments of Weather Underground - 2.75 mb

Script developed by  Jim McMurry - jmcmurry@mwt.net Adapted for the template by  Wim van der Kuil - Leuven-Template.eu

Extremes: The heaviest hailstones on record, weighing up to 2.25 pounds were reported to have killed 92 people in the Gopalganj district of Bangladesh on April 14, 1986.